createdAt,value
2019-02-21T00:00:23.748Z,6.88
2019-02-21T00:01:22.613Z,6.91
2019-02-21T00:02:26.208Z,6.90
2019-02-21T00:03:29.788Z,6.89
2019-02-21T00:04:33.294Z,6.88
2019-02-21T00:05:36.797Z,6.84
2019-02-21T00:06:40.305Z,6.83
2019-02-21T00:07:43.739Z,6.81
2019-02-21T00:08:47.271Z,6.74
2019-02-21T00:09:50.714Z,6.73
2019-02-21T00:10:54.142Z,6.76
2019-02-21T00:11:57.565Z,6.78
2019-02-21T00:13:00.998Z,6.81
2019-02-21T00:14:04.700Z,6.76
2019-02-21T00:15:08.486Z,6.75
2019-02-21T00:16:11.986Z,6.75
2019-02-21T00:17:15.446Z,6.78
2019-02-21T00:18:18.883Z,6.78
2019-02-21T00:19:22.316Z,6.78
2019-02-21T00:20:25.770Z,6.79
2019-02-21T00:21:29.272Z,6.78
2019-02-21T00:22:32.701Z,6.77
2019-02-21T00:23:36.136Z,6.71
2019-02-21T00:24:40.126Z,6.65
2019-02-21T00:25:43.692Z,6.56
2019-02-21T00:26:47.110Z,6.56
2019-02-21T00:27:50.535Z,6.54
2019-02-21T00:28:54.042Z,6.54
2019-02-21T00:29:57.558Z,6.60
2019-02-21T00:31:01.009Z,6.57
2019-02-21T00:32:04.446Z,6.57
2019-02-21T00:33:07.878Z,6.42
2019-02-21T00:34:11.335Z,6.44
2019-02-21T00:35:14.757Z,6.46
2019-02-21T00:36:18.205Z,6.47
2019-02-21T00:37:21.634Z,6.50
2019-02-21T00:38:25.067Z,6.53
2019-02-21T00:39:28.566Z,6.56
2019-02-21T00:40:32.067Z,6.49
2019-02-21T00:41:35.525Z,6.54
2019-02-21T00:42:39.028Z,6.60
2019-02-21T00:43:42.536Z,6.62
2019-02-21T00:44:45.965Z,6.65
2019-02-21T00:45:49.403Z,6.67
2019-02-21T00:46:52.858Z,6.64
2019-02-21T00:47:56.329Z,6.62
2019-02-21T00:48:59.808Z,6.63
2019-02-21T00:50:03.249Z,6.61
2019-02-21T00:51:06.748Z,6.59
2019-02-21T00:52:10.246Z,6.55
2019-02-21T00:53:13.671Z,6.52
2019-02-21T00:54:17.108Z,6.52
2019-02-21T00:55:20.574Z,6.54
2019-02-21T00:56:23.994Z,6.53
2019-02-21T00:57:27.514Z,6.55
2019-02-21T00:58:30.955Z,6.60
2019-02-21T00:59:34.388Z,6.53
2019-02-21T01:00:45.973Z,6.47
2019-02-21T01:01:43.571Z,6.46
2019-02-21T01:02:47.051Z,6.41
2019-02-21T01:03:50.500Z,6.39
2019-02-21T01:04:53.932Z,6.43
2019-02-21T01:05:57.373Z,6.42
2019-02-21T01:07:00.804Z,6.41
2019-02-21T01:08:04.497Z,6.40
2019-02-21T01:09:08.112Z,6.38
2019-02-21T01:10:11.623Z,6.39
2019-02-21T01:11:15.128Z,6.37
2019-02-21T01:12:18.621Z,6.30
2019-02-21T01:13:22.148Z,6.27
2019-02-21T01:14:25.730Z,6.31
2019-02-21T01:15:29.175Z,6.29
2019-02-21T01:16:32.616Z,6.29
2019-02-21T01:17:36.178Z,6.33
2019-02-21T01:18:39.630Z,6.35
2019-02-21T01:19:43.125Z,6.33
2019-02-21T01:20:46.630Z,6.36
2019-02-21T01:21:50.139Z,6.36
2019-02-21T01:22:53.559Z,6.34
2019-02-21T01:23:57.019Z,6.33
2019-02-21T01:25:00.628Z,6.37
2019-02-21T01:26:04.158Z,6.37
2019-02-21T01:27:07.742Z,6.38
2019-02-21T01:28:11.185Z,6.43
2019-02-21T01:29:14.639Z,6.44
2019-02-21T01:30:18.209Z,6.48
2019-02-21T01:31:21.706Z,6.49
2019-02-21T01:32:25.142Z,6.46
2019-02-21T01:33:28.571Z,6.50
2019-02-21T01:34:32.101Z,6.51
2019-02-21T01:35:35.541Z,6.48
2019-02-21T01:36:38.988Z,6.51
2019-02-21T01:37:42.486Z,6.57
2019-02-21T01:38:45.964Z,6.58
2019-02-21T01:39:49.397Z,6.61
2019-02-21T01:40:52.848Z,6.64
2019-02-21T01:41:56.294Z,6.63
2019-02-21T01:42:59.726Z,6.61
2019-02-21T01:44:04.662Z,6.57
2019-02-21T01:45:09.447Z,6.54
2019-02-21T01:46:12.883Z,6.58
2019-02-21T01:47:16.382Z,6.60
2019-02-21T01:48:19.825Z,6.60
2019-02-21T01:49:23.351Z,6.60
2019-02-21T01:50:26.868Z,6.66
2019-02-21T01:51:30.314Z,6.70
2019-02-21T01:52:33.752Z,6.69
2019-02-21T01:53:37.183Z,6.68
2019-02-21T01:54:40.611Z,6.73
2019-02-21T01:55:44.245Z,6.73
2019-02-21T01:56:47.687Z,6.79
2019-02-21T01:57:51.187Z,6.85
2019-02-21T01:58:54.618Z,6.83
2019-02-21T01:59:58.053Z,6.79
2019-02-21T02:01:08.458Z,6.75
2019-02-21T02:02:06.751Z,6.71
2019-02-21T02:03:10.324Z,6.68
2019-02-21T02:04:13.764Z,6.75
2019-02-21T02:05:17.266Z,6.80
2019-02-21T02:06:20.712Z,6.77
2019-02-21T02:07:24.172Z,6.75
2019-02-21T02:08:27.572Z,6.70
2019-02-21T02:09:31.015Z,6.65
2019-02-21T02:10:34.436Z,6.65
2019-02-21T02:11:38.004Z,6.64
2019-02-21T02:12:41.440Z,6.66
2019-02-21T02:13:44.872Z,6.64
2019-02-21T02:14:48.305Z,6.66
2019-02-21T02:15:51.743Z,6.70
2019-02-21T02:16:55.219Z,6.69
2019-02-21T02:17:58.652Z,6.64
2019-02-21T02:19:02.101Z,6.65
2019-02-21T02:20:07.560Z,6.60
2019-02-21T02:21:11.000Z,6.57
2019-02-21T02:22:14.445Z,6.59
2019-02-21T02:23:17.868Z,6.57
2019-02-21T02:24:21.327Z,6.60
2019-02-21T02:25:24.749Z,6.63
2019-02-21T02:26:28.186Z,6.64
2019-02-21T02:27:31.705Z,6.60
2019-02-21T02:28:35.274Z,6.54
2019-02-21T02:29:38.740Z,6.53
2019-02-21T02:30:42.161Z,6.52
2019-02-21T02:31:46.068Z,6.47
2019-02-21T02:32:49.595Z,6.42
2019-02-21T02:33:53.026Z,6.44
2019-02-21T02:34:56.486Z,6.42
2019-02-21T02:35:59.912Z,6.34
2019-02-21T02:37:03.365Z,6.31
2019-02-21T02:38:06.883Z,6.26
2019-02-21T02:39:10.397Z,6.25
2019-02-21T02:40:13.893Z,6.25
2019-02-21T02:41:17.377Z,6.28
2019-02-21T02:42:20.766Z,6.27
2019-02-21T02:43:24.230Z,6.32
2019-02-21T02:44:27.677Z,6.38
2019-02-21T02:45:31.110Z,6.42
2019-02-21T02:46:34.606Z,6.45
2019-02-21T02:47:38.107Z,6.44
2019-02-21T02:48:41.555Z,6.41
2019-02-21T02:49:44.983Z,6.38
2019-02-21T02:50:48.415Z,6.31
2019-02-21T02:51:51.909Z,6.33
2019-02-21T02:52:55.340Z,6.33
2019-02-21T02:53:58.793Z,6.33
2019-02-21T02:55:02.281Z,6.28
2019-02-21T02:56:05.779Z,6.30
2019-02-21T02:57:09.225Z,6.28
2019-02-21T02:58:12.656Z,6.29
2019-02-21T02:59:16.101Z,6.27
2019-02-21T03:00:19.604Z,6.31
2019-02-21T03:01:34.455Z,6.38
2019-02-21T03:02:28.191Z,6.38
2019-02-21T03:03:31.636Z,6.36
2019-02-21T03:04:35.105Z,6.31
2019-02-21T03:05:38.634Z,6.25
2019-02-21T03:06:42.065Z,6.25
2019-02-21T03:07:45.508Z,6.25
2019-02-21T03:08:48.952Z,6.31
2019-02-21T03:09:52.422Z,6.35
2019-02-21T03:10:55.906Z,6.37
2019-02-21T03:11:59.340Z,6.42
2019-02-21T03:13:02.779Z,6.39
2019-02-21T03:14:06.202Z,6.34
2019-02-21T03:15:09.784Z,6.28
2019-02-21T03:16:13.214Z,6.32
2019-02-21T03:17:16.646Z,6.26
2019-02-21T03:18:20.149Z,6.21
2019-02-21T03:19:23.950Z,6.21
2019-02-21T03:20:27.402Z,6.14
2019-02-21T03:21:30.844Z,6.11
2019-02-21T03:22:34.283Z,6.03
2019-02-21T03:23:37.715Z,5.95
2019-02-21T03:24:41.148Z,5.95
2019-02-21T03:25:44.603Z,5.95
2019-02-21T03:26:48.038Z,5.95
2019-02-21T03:27:51.476Z,6.00
2019-02-21T03:28:54.908Z,5.99
2019-02-21T03:29:58.353Z,5.96
2019-02-21T03:31:01.800Z,5.98
2019-02-21T03:32:05.390Z,5.98
2019-02-21T03:33:08.848Z,5.96
2019-02-21T03:34:12.285Z,5.94
2019-02-21T03:35:15.715Z,5.98
2019-02-21T03:36:19.247Z,6.04
2019-02-21T03:37:22.739Z,6.05
2019-02-21T03:38:26.166Z,6.08
2019-02-21T03:39:29.605Z,6.11
2019-02-21T03:40:33.109Z,6.12
2019-02-21T03:41:36.878Z,6.13
2019-02-21T03:42:40.335Z,6.08
2019-02-21T03:43:43.771Z,5.99
2019-02-21T03:44:47.277Z,5.98
2019-02-21T03:45:50.719Z,5.95
2019-02-21T03:46:54.173Z,5.88
2019-02-21T03:47:57.614Z,5.83
2019-02-21T03:49:01.055Z,5.79
2019-02-21T03:50:06.229Z,5.80
2019-02-21T03:51:09.747Z,5.81
2019-02-21T03:52:13.196Z,5.80
2019-02-21T03:53:16.646Z,5.73
2019-02-21T03:54:20.153Z,5.76
2019-02-21T03:55:23.670Z,5.78
2019-02-21T03:56:27.196Z,5.75
2019-02-21T03:57:30.658Z,5.75
2019-02-21T03:58:34.186Z,5.82
2019-02-21T03:59:37.754Z,5.85
2019-02-21T04:00:41.258Z,5.83
2019-02-21T04:01:44.753Z,5.85
2019-02-21T04:02:48.286Z,5.81
2019-02-21T04:03:51.879Z,5.83
2019-02-21T04:04:55.447Z,5.82
2019-02-21T04:05:58.887Z,5.82
2019-02-21T04:07:02.397Z,5.81
2019-02-21T04:08:05.842Z,5.80
2019-02-21T04:09:09.289Z,5.78
2019-02-21T04:10:13.078Z,5.79
2019-02-21T04:11:16.499Z,5.84
2019-02-21T04:12:19.993Z,5.82
2019-02-21T04:13:23.388Z,5.79
2019-02-21T04:14:26.961Z,5.80
2019-02-21T04:15:30.454Z,5.83
2019-02-21T04:16:33.895Z,5.80
2019-02-21T04:17:37.332Z,5.77
2019-02-21T04:18:40.852Z,5.78
2019-02-21T04:19:44.304Z,5.84
2019-02-21T04:20:47.731Z,5.86
2019-02-21T04:21:51.232Z,5.85
2019-02-21T04:22:54.667Z,5.78
2019-02-21T04:23:58.113Z,5.77
2019-02-21T04:25:01.542Z,5.73
2019-02-21T04:26:04.971Z,5.71
2019-02-21T04:27:08.493Z,5.62
2019-02-21T04:28:11.961Z,5.55
2019-02-21T04:29:15.419Z,5.52
2019-02-21T04:30:18.875Z,5.49
2019-02-21T04:31:22.309Z,5.50
2019-02-21T04:32:25.737Z,5.52
2019-02-21T04:33:29.167Z,5.56
2019-02-21T04:34:32.631Z,5.56
2019-02-21T04:35:36.143Z,5.58
2019-02-21T04:36:39.575Z,5.52
2019-02-21T04:37:43.016Z,5.44
2019-02-21T04:38:46.464Z,5.44
2019-02-21T04:39:49.918Z,5.39
2019-02-21T04:40:53.446Z,5.34
2019-02-21T04:41:56.876Z,5.34
2019-02-21T04:43:00.388Z,5.42
2019-02-21T04:44:04.249Z,5.51
2019-02-21T04:45:07.851Z,5.51
2019-02-21T04:46:11.308Z,5.53
2019-02-21T04:47:14.773Z,5.53
2019-02-21T04:48:18.201Z,5.55
2019-02-21T04:49:21.648Z,5.54
2019-02-21T04:50:25.105Z,5.51
2019-02-21T04:51:28.537Z,5.47
2019-02-21T04:52:31.965Z,5.47
2019-02-21T04:53:35.410Z,5.48
2019-02-21T04:54:38.850Z,5.51
2019-02-21T04:55:42.297Z,5.46
2019-02-21T04:56:45.726Z,5.48
2019-02-21T04:57:57.378Z,5.54
2019-02-21T04:59:00.822Z,5.54
2019-02-21T05:00:06.433Z,5.54
2019-02-21T05:01:09.898Z,5.57
2019-02-21T05:02:13.413Z,5.57
2019-02-21T05:03:17.055Z,5.51
2019-02-21T05:04:20.488Z,5.51
2019-02-21T05:05:23.915Z,5.53
2019-02-21T05:06:27.382Z,5.51
2019-02-21T05:07:30.861Z,5.47
2019-02-21T05:08:34.282Z,5.52
2019-02-21T05:09:37.719Z,5.56
2019-02-21T05:10:41.172Z,5.52
2019-02-21T05:11:44.625Z,5.45
2019-02-21T05:12:48.069Z,5.42
2019-02-21T05:13:51.500Z,5.41
2019-02-21T05:14:54.946Z,5.39
2019-02-21T05:15:58.487Z,5.33
2019-02-21T05:17:02.020Z,5.26
2019-02-21T05:18:05.541Z,5.25
2019-02-21T05:19:08.983Z,5.23
2019-02-21T05:20:12.406Z,5.21
2019-02-21T05:21:15.839Z,5.19
2019-02-21T05:22:19.286Z,5.12
2019-02-21T05:23:22.753Z,5.13
2019-02-21T05:24:26.230Z,5.15
2019-02-21T05:25:29.660Z,5.16
2019-02-21T05:26:40.918Z,5.20
2019-02-21T05:27:45.643Z,5.12
2019-02-21T05:28:49.112Z,5.07
2019-02-21T05:29:52.509Z,5.10
2019-02-21T05:30:57.644Z,5.08
2019-02-21T05:32:14.205Z,5.11
2019-02-21T05:33:35.308Z,5.13
2019-02-21T05:34:40.396Z,5.16
2019-02-21T05:35:45.578Z,5.19
2019-02-21T05:36:53.347Z,5.22
2019-02-21T05:38:01.165Z,5.20
2019-02-21T05:39:19.293Z,5.18
2019-02-21T05:40:28.657Z,5.17
2019-02-21T05:41:51.477Z,5.13
2019-02-21T05:43:11.429Z,5.15
2019-02-21T05:44:25.243Z,5.12
2019-02-21T05:45:32.880Z,5.05
2019-02-21T05:46:52.776Z,5.04
2019-02-21T05:48:06.824Z,5.04
2019-02-21T05:49:14.961Z,5.01
2019-02-21T05:50:20.033Z,5.07
2019-02-21T05:51:30.748Z,5.05
2019-02-21T05:52:35.837Z,5.07
2019-02-21T05:53:46.695Z,5.10
2019-02-21T05:55:00.605Z,5.09
2019-02-21T05:56:20.786Z,5.11
2019-02-21T05:57:34.918Z,5.07
2019-02-21T05:58:39.987Z,5.03
2019-02-21T05:59:50.765Z,5.02
2019-02-21T06:01:04.746Z,4.97
2019-02-21T06:02:09.817Z,4.97
2019-02-21T06:03:20.848Z,5.05
2019-02-21T06:04:43.905Z,5.05
2019-02-21T06:05:51.472Z,5.06
2019-02-21T06:07:05.318Z,5.05
2019-02-21T06:08:25.372Z,5.07
2019-02-21T06:09:33.105Z,5.15
2019-02-21T06:10:49.856Z,5.10
2019-02-21T06:12:00.510Z,5.03
2019-02-21T06:13:08.299Z,5.03
2019-02-21T06:14:29.432Z,5.11
2019-02-21T06:15:50.191Z,5.13
2019-02-21T06:17:11.270Z,5.10
2019-02-21T06:18:17.842Z,5.02
2019-02-21T06:19:25.885Z,5.03
2019-02-21T06:20:33.945Z,5.06
2019-02-21T06:21:47.866Z,5.09
2019-02-21T06:22:54.518Z,5.03
2019-02-21T06:24:14.537Z,4.99
2019-02-21T06:25:30.301Z,4.92
2019-02-21T06:26:35.807Z,4.90
2019-02-21T06:27:40.876Z,4.83
2019-02-21T06:28:54.965Z,4.85
2019-02-21T06:30:02.570Z,4.89
2019-02-21T06:31:07.976Z,4.84
2019-02-21T06:32:14.473Z,4.86
2019-02-21T06:33:16.866Z,4.92
2019-02-21T06:34:20.374Z,4.98
2019-02-21T06:35:23.819Z,4.98
2019-02-21T06:36:27.355Z,4.99
2019-02-21T06:37:30.779Z,5.01
2019-02-21T06:38:34.232Z,5.02
2019-02-21T06:39:37.789Z,5.01
2019-02-21T06:40:41.227Z,4.99
2019-02-21T06:41:44.822Z,5.04
2019-02-21T06:42:48.348Z,5.09
2019-02-21T06:43:52.820Z,5.09
2019-02-21T06:44:56.480Z,5.05
2019-02-21T06:46:00.101Z,5.03
2019-02-21T06:47:03.613Z,5.05
2019-02-21T06:48:07.090Z,5.03
2019-02-21T06:49:10.923Z,4.99
2019-02-21T06:50:14.659Z,4.95
2019-02-21T06:51:18.210Z,4.98
2019-02-21T06:52:21.689Z,5.04
2019-02-21T06:53:25.170Z,5.06
2019-02-21T06:54:28.600Z,5.13
2019-02-21T06:55:32.032Z,5.12
2019-02-21T06:56:35.462Z,5.06
2019-02-21T06:57:38.971Z,5.05
2019-02-21T06:58:42.470Z,5.03
2019-02-21T06:59:45.900Z,5.03
2019-02-21T07:00:49.339Z,5.09
2019-02-21T07:01:52.770Z,5.14
2019-02-21T07:02:56.235Z,5.18
2019-02-21T07:04:01.840Z,5.22
2019-02-21T07:05:05.049Z,5.16
2019-02-21T07:06:08.512Z,5.15
2019-02-21T07:07:12.021Z,5.17
2019-02-21T07:08:15.471Z,5.16
2019-02-21T07:09:18.912Z,5.19
2019-02-21T07:10:22.352Z,5.26
2019-02-21T07:11:25.773Z,5.30
2019-02-21T07:12:29.220Z,5.32
2019-02-21T07:13:32.687Z,5.34
2019-02-21T07:14:36.191Z,5.36
2019-02-21T07:15:39.703Z,5.35
2019-02-21T07:16:43.213Z,5.33
2019-02-21T07:17:49.580Z,5.37
2019-02-21T07:18:51.852Z,5.43
2019-02-21T07:19:55.281Z,5.46
2019-02-21T07:20:58.819Z,5.45
2019-02-21T07:22:02.264Z,5.42
2019-02-21T07:23:05.748Z,5.42
2019-02-21T07:24:09.179Z,5.47
2019-02-21T07:25:20.356Z,5.56
2019-02-21T07:26:23.777Z,5.60
2019-02-21T07:27:27.278Z,5.67
2019-02-21T07:28:30.818Z,5.72
2019-02-21T07:29:34.239Z,5.75
2019-02-21T07:30:37.748Z,5.81
2019-02-21T07:31:41.253Z,5.87
2019-02-21T07:32:44.759Z,5.88
2019-02-21T07:33:48.492Z,5.90
2019-02-21T07:34:51.965Z,5.94
2019-02-21T07:35:55.395Z,5.97
2019-02-21T07:36:58.903Z,5.98
2019-02-21T07:38:02.477Z,6.04
2019-02-21T07:39:16.863Z,6.14
2019-02-21T07:40:19.733Z,6.18
2019-02-21T07:41:18.692Z,6.19
2019-02-21T07:42:22.235Z,6.18
2019-02-21T07:43:25.705Z,6.26
2019-02-21T07:44:29.170Z,6.30
2019-02-21T07:45:32.756Z,6.26
2019-02-21T07:46:36.199Z,6.26
2019-02-21T07:47:39.632Z,6.23
2019-02-21T07:48:43.061Z,6.28
2019-02-21T07:49:46.525Z,6.32
2019-02-21T07:50:49.955Z,6.36
2019-02-21T07:51:53.400Z,6.41
2019-02-21T07:53:02.483Z,6.41
2019-02-21T07:54:01.990Z,6.43
2019-02-21T07:55:07.584Z,6.48
2019-02-21T07:56:11.112Z,6.50
2019-02-21T07:57:14.522Z,6.10
2019-02-21T07:58:17.965Z,6.52
2019-02-21T07:59:21.398Z,6.57
2019-02-21T08:00:24.960Z,6.60
2019-02-21T08:01:28.435Z,6.31
2019-02-21T08:02:31.824Z,6.60
2019-02-21T08:03:43.766Z,6.69
2019-02-21T08:04:40.414Z,6.71
2019-02-21T08:05:43.875Z,6.72
2019-02-21T08:06:47.315Z,6.75
2019-02-21T08:07:50.853Z,6.77
2019-02-21T08:08:54.332Z,6.80
2019-02-21T08:09:57.932Z,6.85
2019-02-21T08:11:01.480Z,6.87
2019-02-21T08:12:05.343Z,6.88
2019-02-21T08:13:08.847Z,6.86
2019-02-21T08:14:12.278Z,6.94
2019-02-21T08:15:15.785Z,6.97
2019-02-21T08:16:19.247Z,7.00
2019-02-21T08:17:22.687Z,7.03
2019-02-21T08:18:26.117Z,7.06
2019-02-21T08:19:29.636Z,7.09
2019-02-21T08:20:37.075Z,7.15
2019-02-21T08:21:38.487Z,7.20
2019-02-21T08:22:41.949Z,7.23
2019-02-21T08:23:50.642Z,7.24
2019-02-21T08:24:50.536Z,7.26
2019-02-21T08:25:53.992Z,7.27
2019-02-21T08:26:57.442Z,7.30
2019-02-21T08:28:00.946Z,7.31
2019-02-21T08:29:06.141Z,7.33
2019-02-21T08:30:12.809Z,7.39
2019-02-21T08:31:16.267Z,7.39
2019-02-21T08:32:21.334Z,7.43
2019-02-21T08:33:29.111Z,7.43
2019-02-21T08:34:36.867Z,7.44
2019-02-21T08:35:40.301Z,7.45
2019-02-21T08:36:43.762Z,7.44
2019-02-21T08:37:47.211Z,7.48
2019-02-21T08:38:50.649Z,7.53
2019-02-21T08:39:54.076Z,7.60
2019-02-21T08:40:57.517Z,7.62
2019-02-21T08:42:00.977Z,7.67
2019-02-21T08:43:04.566Z,7.72
2019-02-21T08:44:08.071Z,7.74
2019-02-21T08:45:11.718Z,7.80
2019-02-21T08:46:18.138Z,7.85
2019-02-21T08:47:20.405Z,7.89
2019-02-21T08:48:23.835Z,7.88
2019-02-21T08:49:27.354Z,7.93
2019-02-21T08:50:30.843Z,7.96
2019-02-21T08:51:34.323Z,7.99
2019-02-21T08:52:37.776Z,8.04
2019-02-21T08:53:41.257Z,8.02
2019-02-21T08:54:44.729Z,8.05
2019-02-21T08:55:48.138Z,8.05
2019-02-21T08:56:51.670Z,8.12
2019-02-21T08:57:55.127Z,8.15
2019-02-21T08:58:58.572Z,8.22
2019-02-21T09:00:02.009Z,8.25
2019-02-21T09:01:05.683Z,8.29
2019-02-21T09:02:09.261Z,8.31
2019-02-21T09:03:12.767Z,8.30
2019-02-21T09:04:26.801Z,8.33
2019-02-21T09:05:21.662Z,8.36
2019-02-21T09:06:25.170Z,8.37
2019-02-21T09:07:28.842Z,8.44
2019-02-21T09:08:36.799Z,8.45
2019-02-21T09:09:37.522Z,8.47
2019-02-21T09:10:41.033Z,8.48
2019-02-21T09:11:44.539Z,8.53
2019-02-21T09:12:48.732Z,8.58
2019-02-21T09:13:52.377Z,8.59
2019-02-21T09:14:55.842Z,8.61
2019-02-21T09:15:59.357Z,8.68
2019-02-21T09:17:02.787Z,8.75
2019-02-21T09:18:06.204Z,8.78
2019-02-21T09:19:09.753Z,8.82
2019-02-21T09:20:13.240Z,8.89
2019-02-21T09:21:16.701Z,8.98
2019-02-21T09:22:20.194Z,8.94
2019-02-21T09:23:23.629Z,8.92
2019-02-21T09:24:38.034Z,8.98
2019-02-21T09:25:32.300Z,8.95
2019-02-21T09:26:35.740Z,8.92
2019-02-21T09:27:39.251Z,8.92
2019-02-21T09:28:42.758Z,8.92
2019-02-21T09:29:46.227Z,9.00
2019-02-21T09:30:49.680Z,9.04
2019-02-21T09:31:53.154Z,9.06
2019-02-21T09:32:56.558Z,9.13
2019-02-21T09:33:59.994Z,9.23
2019-02-21T09:35:03.518Z,9.32
2019-02-21T09:36:06.969Z,9.32
2019-02-21T09:37:10.467Z,9.32
2019-02-21T09:38:13.891Z,9.34
2019-02-21T09:39:17.317Z,9.34
2019-02-21T09:40:20.766Z,9.34
2019-02-21T09:41:24.270Z,9.29
2019-02-21T09:42:27.794Z,9.29
2019-02-21T09:43:31.230Z,9.29
2019-02-21T09:44:35.897Z,9.34
2019-02-21T09:45:39.435Z,9.39
2019-02-21T09:46:42.866Z,9.44
2019-02-21T09:47:46.383Z,9.50
2019-02-21T09:48:49.820Z,9.54
2019-02-21T09:49:53.291Z,9.57
2019-02-21T09:50:56.820Z,9.59
2019-02-21T09:52:00.344Z,9.64
2019-02-21T09:53:03.852Z,9.71
2019-02-21T09:54:07.391Z,9.75
2019-02-21T09:55:13.865Z,9.75
2019-02-21T09:56:17.317Z,9.76
2019-02-21T09:57:20.841Z,9.81
2019-02-21T09:58:24.341Z,9.85
2019-02-21T09:59:28.845Z,9.99
2019-02-21T10:00:32.365Z,9.99
2019-02-21T10:01:35.912Z,10.03
2019-02-21T10:02:41.958Z,10.03
2019-02-21T10:03:44.655Z,10.01
2019-02-21T10:04:48.100Z,9.95
2019-02-21T10:05:51.652Z,9.95
2019-02-21T10:06:55.106Z,9.94
2019-02-21T10:07:58.563Z,9.92
2019-02-21T10:09:02.063Z,10.00
2019-02-21T10:10:08.712Z,10.00
2019-02-21T10:11:12.271Z,10.02
2019-02-21T10:12:15.744Z,10.06
2019-02-21T10:13:19.323Z,10.12
2019-02-21T10:14:22.811Z,10.18
2019-02-21T10:15:26.313Z,10.23
2019-02-21T10:16:29.772Z,10.20
2019-02-21T10:17:33.214Z,10.23
2019-02-21T10:18:36.703Z,10.27
2019-02-21T10:19:40.146Z,10.30
2019-02-21T10:20:43.650Z,10.33
2019-02-21T10:21:47.237Z,10.36
2019-02-21T10:22:50.741Z,10.42
2019-02-21T10:23:56.602Z,10.49
2019-02-21T10:24:59.381Z,10.51
2019-02-21T10:26:02.841Z,10.47
2019-02-21T10:27:06.455Z,10.46
2019-02-21T10:28:09.920Z,10.53
2019-02-21T10:29:13.364Z,10.55
2019-02-21T10:30:19.043Z,10.64
2019-02-21T10:31:22.544Z,10.81
2019-02-21T10:32:26.044Z,10.89
2019-02-21T10:33:29.452Z,10.99
2019-02-21T10:34:42.518Z,11.09
2019-02-21T10:35:38.167Z,11.11
2019-02-21T10:36:41.637Z,11.16
2019-02-21T10:37:45.110Z,11.19
2019-02-21T10:38:48.636Z,11.20
2019-02-21T10:39:52.166Z,11.22
2019-02-21T10:40:55.661Z,11.26
2019-02-21T10:41:59.037Z,11.32
2019-02-21T10:43:02.477Z,11.24
2019-02-21T10:44:06.145Z,11.30
2019-02-21T10:45:12.574Z,11.37
2019-02-21T10:46:16.085Z,11.32
2019-02-21T10:47:19.590Z,11.33
2019-02-21T10:48:23.093Z,11.33
2019-02-21T10:49:26.564Z,11.41
2019-02-21T10:50:30.203Z,11.48
2019-02-21T10:51:33.675Z,11.51
2019-02-21T10:52:37.090Z,11.40
2019-02-21T10:53:40.611Z,11.46
2019-02-21T10:54:44.067Z,11.44
2019-02-21T10:55:48.165Z,11.38
2019-02-21T10:56:51.576Z,11.34
2019-02-21T10:57:55.016Z,11.30
2019-02-21T10:58:58.493Z,11.29
2019-02-21T11:00:01.948Z,11.25
2019-02-21T11:01:05.546Z,11.18
2019-02-21T11:02:09.065Z,11.14
2019-02-21T11:03:12.632Z,11.20
2019-02-21T11:04:16.083Z,11.20
2019-02-21T11:05:19.702Z,11.23
2019-02-21T11:06:23.171Z,11.35
2019-02-21T11:07:26.611Z,11.42
2019-02-21T11:08:30.055Z,11.46
2019-02-21T11:09:33.544Z,11.51
2019-02-21T11:10:37.105Z,11.51
2019-02-21T11:11:40.638Z,11.57
2019-02-21T11:12:44.133Z,11.54
2019-02-21T11:13:47.665Z,11.53
2019-02-21T11:14:51.192Z,11.56
2019-02-21T11:15:54.715Z,11.60
2019-02-21T11:16:58.234Z,11.63
2019-02-21T11:18:01.672Z,11.65
2019-02-21T11:19:05.198Z,11.67
2019-02-21T11:20:11.666Z,11.71
2019-02-21T11:21:15.721Z,11.69
2019-02-21T11:22:19.202Z,11.54
2019-02-21T11:23:22.620Z,11.52
2019-02-21T11:24:26.122Z,11.49
2019-02-21T11:25:29.580Z,11.51
2019-02-21T11:26:33.095Z,11.43
2019-02-21T11:27:36.627Z,11.42
2019-02-21T11:28:40.075Z,11.37
2019-02-21T11:29:43.574Z,11.35
2019-02-21T11:30:47.024Z,11.32
2019-02-21T11:31:50.552Z,11.31
2019-02-21T11:32:54.081Z,11.36
2019-02-21T11:33:57.522Z,11.36
2019-02-21T11:35:06.087Z,11.41
2019-02-21T11:36:06.195Z,11.49
2019-02-21T11:37:09.663Z,11.48
2019-02-21T11:38:13.178Z,11.44
2019-02-21T11:39:16.690Z,11.46
2019-02-21T11:40:20.268Z,11.45
2019-02-21T11:41:23.736Z,11.45
2019-02-21T11:42:27.267Z,11.39
2019-02-21T11:43:30.768Z,11.39
2019-02-21T11:44:34.212Z,11.40
2019-02-21T11:45:37.791Z,11.42
2019-02-21T11:46:41.319Z,11.45
2019-02-21T11:47:44.790Z,11.43
2019-02-21T11:48:48.225Z,11.46
2019-02-21T11:49:51.733Z,11.43
2019-02-21T11:50:55.166Z,11.51
2019-02-21T11:52:09.625Z,11.55
2019-02-21T11:53:03.926Z,11.62
2019-02-21T11:54:07.609Z,11.65
2019-02-21T11:55:13.649Z,11.67
2019-02-21T11:56:17.090Z,11.68
2019-02-21T11:57:20.833Z,11.68
2019-02-21T11:58:24.280Z,11.74
2019-02-21T11:59:27.725Z,11.79
2019-02-21T12:00:31.683Z,11.91
2019-02-21T12:01:35.191Z,12.06
2019-02-21T12:02:39.187Z,12.22
2019-02-21T12:03:42.736Z,12.32
2019-02-21T12:04:46.243Z,12.53
2019-02-21T12:05:49.680Z,12.70
2019-02-21T12:06:53.323Z,12.87
2019-02-21T12:07:56.831Z,13.02
2019-02-21T12:09:00.323Z,13.11
2019-02-21T12:10:05.502Z,13.17
2019-02-21T12:11:08.942Z,13.27
2019-02-21T12:12:12.401Z,13.33
2019-02-21T12:13:15.962Z,13.23
2019-02-21T12:14:19.418Z,13.19
2019-02-21T12:15:23.240Z,13.18
2019-02-21T12:16:26.767Z,13.10
2019-02-21T12:17:30.256Z,13.02
2019-02-21T12:18:33.961Z,13.03
2019-02-21T12:19:37.492Z,13.04
2019-02-21T12:20:40.945Z,13.10
2019-02-21T12:21:44.684Z,13.14
2019-02-21T12:22:48.380Z,13.01
2019-02-21T12:23:51.817Z,12.93
2019-02-21T12:24:55.433Z,12.85
2019-02-21T12:25:58.964Z,12.90
2019-02-21T12:27:02.408Z,12.91
2019-02-21T12:28:05.995Z,13.02
2019-02-21T12:29:09.407Z,12.99
2019-02-21T12:30:17.781Z,12.95
2019-02-21T12:31:21.221Z,12.78
2019-02-21T12:32:24.897Z,12.84
2019-02-21T12:33:28.387Z,12.91
2019-02-21T12:34:31.810Z,12.88
2019-02-21T12:35:35.413Z,12.85
2019-02-21T12:36:38.925Z,12.79
2019-02-21T12:37:42.563Z,12.69
2019-02-21T12:38:46.073Z,12.63
2019-02-21T12:39:49.640Z,12.62
2019-02-21T12:40:53.352Z,12.71
2019-02-21T12:41:56.793Z,12.77
2019-02-21T12:43:00.230Z,12.84
2019-02-21T12:44:03.790Z,12.91
2019-02-21T12:45:13.133Z,12.96
2019-02-21T12:46:16.732Z,13.05
2019-02-21T12:47:20.253Z,13.10
2019-02-21T12:48:23.786Z,13.07
2019-02-21T12:49:27.426Z,13.05
2019-02-21T12:50:30.872Z,13.12
2019-02-21T12:51:34.429Z,13.15
2019-02-21T12:52:37.938Z,12.94
2019-02-21T12:53:41.376Z,12.77
2019-02-21T12:54:45.086Z,12.86
2019-02-21T12:55:48.613Z,12.94
2019-02-21T12:56:52.072Z,12.98
2019-02-21T12:57:55.715Z,13.01
2019-02-21T12:58:59.262Z,12.95
2019-02-21T13:00:02.786Z,13.04
2019-02-21T13:01:06.437Z,13.10
2019-02-21T13:02:09.916Z,13.06
2019-02-21T13:03:13.454Z,13.03
2019-02-21T13:04:18.633Z,12.98
2019-02-21T13:05:22.254Z,13.00
2019-02-21T13:06:25.868Z,13.08
2019-02-21T13:07:29.911Z,13.14
2019-02-21T13:08:33.356Z,13.14
2019-02-21T13:09:36.986Z,13.15
2019-02-21T13:10:40.489Z,13.26
2019-02-21T13:11:44.476Z,13.58
2019-02-21T13:12:48.001Z,13.69
2019-02-21T13:13:51.542Z,13.72
2019-02-21T13:14:54.975Z,14.16
2019-02-21T13:15:59.102Z,14.57
2019-02-21T13:17:02.544Z,14.97
2019-02-21T13:18:15.498Z,14.96
2019-02-21T13:19:11.385Z,15.06
2019-02-21T13:20:17.810Z,15.27
2019-02-21T13:21:21.259Z,15.18
2019-02-21T13:22:24.713Z,14.90
2019-02-21T13:23:28.306Z,14.76
2019-02-21T13:24:31.771Z,14.58
2019-02-21T13:25:35.267Z,14.46
2019-02-21T13:26:38.818Z,14.43
2019-02-21T13:27:42.248Z,14.41
2019-02-21T13:28:45.870Z,14.38
2019-02-21T13:29:49.405Z,14.28
2019-02-21T13:30:52.911Z,14.20
2019-02-21T13:31:56.415Z,14.18
2019-02-21T13:32:59.992Z,14.10
2019-02-21T13:34:03.453Z,14.11
2019-02-21T13:35:08.547Z,14.25
2019-02-21T13:36:11.972Z,14.52
2019-02-21T13:37:15.500Z,14.52
2019-02-21T13:38:18.960Z,14.63
2019-02-21T13:39:22.563Z,14.56
2019-02-21T13:40:26.005Z,14.52
2019-02-21T13:41:29.522Z,14.48
2019-02-21T13:42:33.048Z,14.42
2019-02-21T13:43:36.482Z,14.38
2019-02-21T13:44:39.942Z,14.29
2019-02-21T13:45:43.397Z,14.30
2019-02-21T13:46:46.849Z,14.31
2019-02-21T13:47:50.394Z,14.24
2019-02-21T13:48:53.839Z,13.94
2019-02-21T13:49:57.385Z,13.88
2019-02-21T13:51:00.880Z,13.79
2019-02-21T13:52:04.452Z,13.64
2019-02-21T13:53:07.903Z,13.53
2019-02-21T13:54:11.495Z,13.42
2019-02-21T13:55:15.091Z,13.45
2019-02-21T13:56:18.562Z,13.49
2019-02-21T13:57:22.044Z,13.53
2019-02-21T13:58:25.501Z,13.49
2019-02-21T13:59:28.953Z,13.38
2019-02-21T14:00:32.421Z,13.32
2019-02-21T14:01:35.871Z,13.35
2019-02-21T14:02:39.382Z,13.32
2019-02-21T14:03:42.818Z,13.31
2019-02-21T14:04:46.528Z,13.29
2019-02-21T14:05:49.955Z,13.21